Flight Track Log - Related Links

Times and Time Zones

All times are in EDT time to prevent confusion due to time zone crossing. See the JBU527 flight status page for this flight to view local times or setup timezone preferences in your user account.

Time Position Orientation Groundspeed Altitude Reporting Facility
EDT Latitude Longitude Course Direction KTS MPH feet Rate Location/Type
Sat 07:25:02 PM 40.6700 -74.1807 33° Northeast 165 190 800  Level FlightAware ADS-B
Sat 07:25:10 PM 40.6637 -74.1809 181° South 171 197 1,200 1,929 Climbing FlightAware ADS-B
Sat 07:25:30 PM 40.6476 -74.1820 183° South 176 203 1,700 1,500 Climbing FlightAware ADS-B
Sat 07:25:34 PM 40.6436 -74.1844 204° Southwest 190 219 1,800 1,059 Climbing FlightAware ADS-B
Sat 07:25:47 PM 40.6338 -74.1929 213° Southwest 206 237 2,000 1,000 Climbing FlightAware ADS-B
Sat 07:25:52 PM 40.6300 -74.1967 217° Southwest 215 247 2,100 1,286 Climbing FlightAware ADS-B
Sat 07:26:01 PM 40.6226 -74.2042 218° Southwest 231 266 2,300 1,920 Climbing FlightAware ADS-B
Sat 07:26:17 PM 40.6087 -74.2190 219° Southwest 251 289 2,900 2,813 Climbing FlightAware ADS-B
Sat 07:26:33 PM 40.5943 -74.2342 219° Southwest 253 291 3,800 3,500 Climbing FlightAware ADS-B
Sat 07:26:53 PM 40.5746 -74.2535 217° Southwest 257 296 5,000 2,919 Climbing FlightAware ADS-B
Sat 07:27:10 PM 40.5579 -74.2670 212° Southwest 263 303 5,600 2,000 Climbing FlightAware ADS-B
Sat 07:27:14 PM 40.5533 -74.2693 201° Southwest 272 313 5,700 750 Climbing FlightAware ADS-B
Sat 07:27:26 PM 40.5376 -74.2718 187° South 280 322 5,800 300 Climbing FlightAware ADS-B
Sat 07:27:34 PM 40.5274 -74.2696 171° South 283 326 5,800 545 Level FlightAware ADS-B
Sat 07:27:37 PM 40.5230 -74.2678 163° South 283 326 5,900 1,000 Climbing FlightAware ADS-B
Sat 07:27:40 PM 40.5198 -74.2664 162° South 283 326 5,900  Level FlightAware ADS-B
Sat 07:27:41 PM 40.5185 -74.2657 158° South 284 327 5,900  Level FlightAware ADS-B
Sat 07:27:49 PM 40.5092 -74.2610 159° South 284 327 5,900  Level FlightAware ADS-B
Sat 07:28:04 PM 40.4909 -74.2510 157° South 284 327 5,900  Level FlightAware ADS-B
Sat 07:28:06 PM 40.4880 -74.2494 157° South 283 326 5,900  Level FlightAware ADS-B
Sat 07:28:26 PM 40.4647 -74.2367 157° South 281 323 5,900  Level FlightAware ADS-B
Sat 07:28:43 PM 40.4434 -74.2254 158° South 285 328 5,900  Level FlightAware ADS-B
Sat 07:28:59 PM 40.4231 -74.2150 159° South 286 329 5,900  Level FlightAware ADS-B
Sat 07:29:16 PM 40.4026 -74.2043 158° South 286 329 5,900  Level FlightAware ADS-B
Sat 07:29:33 PM 40.3821 -74.1938 159° South 283 326 5,900 1,091 Level FlightAware ADS-B
Sat 07:29:49 PM 40.3622 -74.1838 159° South 289 333 6,500 2,889 Climbing FlightAware ADS-B
Sat 07:30:00 PM 40.3480 -74.1768 159° South 291 335 7,200 3,111 Climbing FlightAware ADS-B
Sat 07:30:16 PM 40.3282 -74.1671 160° South 299 344 7,900 2,609 Climbing FlightAware ADS-B
Sat 07:30:23 PM 40.3188 -74.1635 164° South 302 348 8,200 2,500 Climbing FlightAware ADS-B
Sat 07:30:28 PM 40.3120 -74.1621 171° South 300 345 8,400 3,333 Climbing FlightAware ADS-B
Sat 07:30:32 PM 40.3062 -74.1620 179° South 294 338 8,700 3,750 Climbing FlightAware ADS-B
Sat 07:30:36 PM 40.3010 -74.1626 185° South 290 334 8,900 3,789 Climbing FlightAware ADS-B
Sat 07:30:51 PM 40.2815 -74.1676 191° South 280 322 9,900 2,936 Climbing FlightAware ADS-B
Sat 07:31:23 PM 40.2406 -74.1801 193° South 297 342 11,200 1,742 Climbing FlightAware ADS-B
Sat 07:31:53 PM 40.1970 -74.1934 193° South 334 384 11,700 1,781 Climbing FlightAware ADS-B
Sat 07:32:27 PM 40.1444 -74.2089 193° South 342 394 13,100 2,492 Climbing FlightAware ADS-B
Sat 07:32:58 PM 40.0976 -74.2227 193° South 345 397 14,400 2,516 Climbing FlightAware ADS-B
Sat 07:33:29 PM 40.0487 -74.2374 193° South 350 403 15,700 2,327 Climbing FlightAware ADS-B
Sat 07:33:47 PM 40.0203 -74.2463 193° South 354 407 16,300 2,000 Climbing FlightAware ADS-B
Sat 07:33:56 PM 40.0068 -74.2527 200° South 349 402 16,600 2,250 Climbing FlightAware ADS-B
Sat 07:34:03 PM 39.9960 -74.2605 209° Southwest 347 399 16,900 2,571 Climbing FlightAware ADS-B
Sat 07:34:17 PM 39.9777 -74.2767 214° Southwest 345 397 17,500 2,455 Climbing FlightAware ADS-B
Sat 07:34:47 PM 39.9390 -74.3139 216° Southwest 346 398 18,700 2,273 Climbing FlightAware ADS-B
Sat 07:35:23 PM 39.8923 -74.3590 217° Southwest 350 403 20,000 2,261 Climbing FlightAware ADS-B
Sat 07:35:56 PM 39.8505 -74.3988 216° Southwest 346 398 21,300 2,267 Climbing FlightAware ADS-B
Sat 07:36:08 PM 39.8349 -74.4138 216° Southwest 347 399 21,700 1,714 Climbing FlightAware ADS-B
Sat 07:36:17 PM 39.8230 -74.4259 218° Southwest 348 400 21,900 1,688 Climbing FlightAware ADS-B
Sat 07:36:40 PM 39.7951 -74.4589 222° Southwest 350 403 22,600 1,667 Climbing FlightAware ADS-B
Sat 07:37:11 PM 39.7598 -74.5060 226° Southwest 354 407 23,400 1,548 Climbing FlightAware ADS-B
Sat 07:37:42 PM 39.7247 -74.5531 226° Southwest 357 411 24,200 1,742 Climbing FlightAware ADS-B
Sat 07:38:13 PM 39.6893 -74.5999 225° Southwest 356 410 25,200 1,781 Climbing FlightAware ADS-B
Sat 07:38:46 PM 39.6514 -74.6500 226° Southwest 354 407 26,100 1,569 Climbing FlightAware ADS-B
Sat 07:39:18 PM 39.6141 -74.6992 225° Southwest 354 407 26,900 1,429 Climbing FlightAware ADS-B
Sat 07:39:49 PM 39.5796 -74.7449 226° Southwest 356 410 27,600 1,065 Climbing FlightAware ADS-B
Sat 07:40:20 PM 39.5436 -74.7924 226° Southwest 342 394 28,000 387 Climbing FlightAware ADS-B
Sat 07:40:51 PM 39.5100 -74.8362 225° Southwest 342 394 28,000  Level FlightAware ADS-B
Sat 07:41:22 PM 39.4749 -74.8823 225° Southwest 350 403 28,000  Level FlightAware ADS-B
Sat 07:41:42 PM 39.4522 -74.9118 225° Southwest 352 405 28,000  Level FlightAware ADS-B
Sat 07:41:48 PM 39.4442 -74.9205 220° Southwest 353 406 28,000  Level FlightAware ADS-B
Sat 07:42:01 PM 39.4262 -74.9353 212° Southwest 356 410 28,000  Level FlightAware ADS-B
Sat 07:42:33 PM 39.3799 -74.9661 207° Southwest 352 405 28,000  Level FlightAware ADS-B
Sat 07:43:05 PM 39.3344 -74.9969 208° Southwest 348 400 28,000  Level FlightAware ADS-B
Sat 07:43:39 PM 39.2852 -75.0306 208° Southwest 348 400 28,000  Level FlightAware ADS-B
Sat 07:44:09 PM 39.2423 -75.0599 208° Southwest 348 400 28,000  Level FlightAware ADS-B
Sat 07:44:42 PM 39.1963 -75.0915 208° Southwest 349 402 28,000  Level FlightAware ADS-B
Sat 07:45:12 PM 39.1531 -75.1211 208° Southwest 350 403 28,000  Level FlightAware ADS-B
Sat 07:45:44 PM 39.1078 -75.1519 208° Southwest 351 404 28,000  Level FlightAware ADS-B
Sat 07:46:14 PM 39.0646 -75.1814 208° Southwest 351 404 28,000  Level FlightAware ADS-B
Sat 07:46:45 PM 39.0200 -75.2117 208° Southwest 351 404 28,000  Level FlightAware ADS-B
Sat 07:47:21 PM 38.9675 -75.2474 208° Southwest 353 406 28,000  Level FlightAware ADS-B
Sat 07:47:54 PM 38.9202 -75.2795 208° Southwest 355 409 28,000  Level FlightAware ADS-B
Sat 07:48:25 PM 38.8756 -75.3097 208° Southwest 357 411 28,000  Level FlightAware ADS-B
Sat 07:48:55 PM 38.8315 -75.3396 208° Southwest 359 413 28,000 100 Level FlightAware ADS-B
Sat 07:49:25 PM 38.7869 -75.3698 208° Southwest 358 412 28,100 95 Climbing FlightAware ADS-B
Sat 07:49:58 PM 38.7392 -75.4019 208° Southwest 357 411 28,100 -95 Level FlightAware ADS-B
Sat 07:50:28 PM 38.6951 -75.4316 208° Southwest 357 411 28,000 -98 Descending FlightAware ADS-B
Sat 07:50:59 PM 38.6505 -75.4615 208° Southwest 357 411 28,000  Level FlightAware ADS-B
Sat 07:51:29 PM 38.6065 -75.4911 208° Southwest 357 411 28,000  Level FlightAware ADS-B
Sat 07:51:59 PM 38.5624 -75.5206 208° Southwest 356 410 28,000  Level FlightAware ADS-B
Sat 07:52:29 PM 38.5185 -75.5500 208° Southwest 356 410 28,000  Level FlightAware ADS-B
Sat 07:53:02 PM 38.4700 -75.5825 208° Southwest 355 409 28,000  Level FlightAware ADS-B
Sat 07:53:33 PM 38.4260 -75.6119 208° Southwest 352 405 28,000  Level FlightAware ADS-B
Sat 07:54:15 PM 38.3656 -75.6521 208° Southwest 351 404 28,000  Level FlightAware ADS-B
Sat 07:54:47 PM 38.3193 -75.6829 208° Southwest 350 403 28,000  Level FlightAware ADS-B
Sat 07:55:17 PM 38.2762 -75.7116 208° Southwest 350 403 28,000  Level FlightAware ADS-B
Sat 07:55:49 PM 38.2312 -75.7414 207° Southwest 343 395 28,000  Level FlightAware ADS-B
Sat 07:56:19 PM 38.1894 -75.7690 207° Southwest 335 386 28,000  Level FlightAware ADS-B
Sat 07:56:50 PM 38.1456 -75.7983 208° Southwest 338 389 28,000  Level FlightAware ADS-B
Sat 07:57:23 PM 38.1007 -75.8281 208° Southwest 341 392 28,000  Level FlightAware ADS-B
Sat 07:58:22 PM 38.0220 -75.8790 207° Southwest 332 382 28,000  Level FlightAware ADS-B
Sat 07:59:07 PM 37.9620 -75.9190 208° Southwest 333 383 28,000  Level FlightAware ADS-B
Sat 07:59:24 PM 37.9315 -75.9392 208° Southwest 342 394 28,000  Level FlightAware ADS-B
Sat 07:59:54 PM 37.8893 -75.9671 208° Southwest 342 394 28,000  Level FlightAware ADS-B
Sat 08:00:26 PM 37.8451 -75.9961 207° Southwest 342 394 28,000  Level FlightAware ADS-B
Sat 08:00:57 PM 37.8006 -76.0253 207° Southwest 339 390 28,000  Level FlightAware ADS-B
Sat 08:01:28 PM 37.7576 -76.0535 207° Southwest 340 391 28,000  Level FlightAware ADS-B
Sat 08:01:59 PM 37.7145 -76.0815 207° Southwest 342 394 28,000  Level FlightAware ADS-B
Sat 08:02:29 PM 37.6723 -76.1090 207° Southwest 343 395 28,000  Level FlightAware ADS-B
Sat 08:03:01 PM 37.6270 -76.1385 207° Southwest 343 395 28,000  Level FlightAware ADS-B
Sat 08:03:32 PM 37.5839 -76.1666 207° Southwest 343 395 28,000  Level FlightAware ADS-B
Sat 08:04:02 PM 37.5470 -76.1910 208° Southwest 344 396 28,000  Level FlightAware ADS-B
Sat 08:04:05 PM 37.5368 -76.1971 205° Southwest 345 397 28,000  Level FlightAware ADS-B
Sat 08:04:36 PM 37.4931 -76.2256 207° Southwest 347 399 28,000  Level FlightAware ADS-B
Sat 08:05:06 PM 37.4496 -76.2538 207° Southwest 349 402 28,000  Level FlightAware ADS-B
Sat 08:05:36 PM 37.4065 -76.2817 207° Southwest 350 403 28,000  Level FlightAware ADS-B
Sat 08:06:07 PM 37.3660 -76.3080 207° Southwest 343 395 28,000  Level FlightAware ADS-B
Sat 08:06:12 PM 37.3548 -76.3152 207° Southwest 350 403 28,000  Level FlightAware ADS-B
Sat 08:06:44 PM 37.3084 -76.3451 207° Southwest 350 403 28,000  Level FlightAware ADS-B
Sat 08:07:15 PM 37.2635 -76.3740 207° Southwest 351 404 28,000  Level FlightAware ADS-B
Sat 08:08:02 PM 37.2020 -76.4140 207° Southwest 343 395 28,000 -1,370 Level FlightAware ADS-B
Sat 08:08:47 PM 37.1370 -76.4550 207° Southwest 361 415 25,900 -2,753 Descending FlightAware ADS-B
Sat 08:09:27 PM 37.0760 -76.4950 208° Southwest 373 429 24,100 -1,341 Descending FlightAware ADS-B
Sat 08:10:12 PM 37.0150 -76.5340 207° Southwest 373 429 24,000 -71 Descending FlightAware ADS-B
Sat 08:10:52 PM 36.9540 -76.5720 206° Southwest 365 420 24,000  Level FlightAware ADS-B
Sat 08:11:27 PM 36.9070 -76.6030 208° Southwest 365 420 24,000  Level FlightAware ADS-B
Sat 08:12:27 PM 36.8150 -76.6610 207° Southwest 338 389 24,000  Level FlightAware ADS-B
Sat 08:13:12 PM 36.7590 -76.6960 207° Southwest 338 389 24,000  Level FlightAware ADS-B
Sat 08:13:52 PM 36.6970 -76.7360 207° Southwest 336 387 24,000  Level FlightAware ADS-B
Sat 08:14:32 PM 36.6500 -76.7660 207° Southwest 336 387 24,000  Level FlightAware ADS-B
Sat 08:15:12 PM 36.6030 -76.7950 206° Southwest 336 387 24,000  Level FlightAware ADS-B
Sat 08:16:02 PM 36.5440 -76.8330 207° Southwest 336 387 24,000  Level FlightAware ADS-B
Sat 08:16:42 PM 36.4970 -76.8630 207° Southwest 336 387 24,000  Level FlightAware ADS-B
Sat 08:17:52 PM 36.3422 -76.9586 207° Southwest 350 403 24,000  Level Washington Center
Sat 08:18:52 PM 36.2542 -77.0111 206° Southwest 350 403 24,000  Level Washington Center
Sat 08:19:52 PM 36.1700 -77.0664 208° Southwest 350 403 24,000 200 Level Washington Center
Sat 08:20:52 PM 36.0794 -77.1211 206° Southwest 350 403 24,400 1,350 Climbing Washington Center
Sat 08:21:52 PM 36.0017 -77.1736 209° Southwest 350 403 26,700 2,450 Climbing Washington Center
Sat 08:22:52 PM 35.9156 -77.2231 205° Southwest 345 397 29,300 2,050 Climbing Washington Center
Sat 08:23:52 PM 35.8333 -77.2728 206° Southwest 340 391 30,800 410 Climbing Washington Center
Sat 08:29:27 PM 35.4720 -77.4970 206° Southwest 348 400 32,000 189 Climbing FlightAware ADS-B
Sat 08:30:12 PM 35.4120 -77.5340 207° Southwest 348 400 32,000  Level FlightAware ADS-B
Sat 08:30:52 PM 35.3640 -77.5650 208° Southwest 348 400 32,000  Level FlightAware ADS-B
Sat 08:31:32 PM 35.3150 -77.5950 207° Southwest 348 400 32,000  Level FlightAware ADS-B
Sat 08:32:12 PM 35.2660 -77.6260 207° Southwest 348 400 32,000  Level FlightAware ADS-B
Sat 08:33:02 PM 35.2050 -77.6640 207° Southwest 348 400 32,000  Level FlightAware ADS-B
Sat 08:33:42 PM 35.1560 -77.6940 207° Southwest 348 400 32,000  Level FlightAware ADS-B
Sat 08:34:22 PM 35.1080 -77.7240 207° Southwest 348 400 32,000  Level FlightAware ADS-B
Sat 08:35:02 PM 35.0590 -77.7550 207° Southwest 348 400 32,000  Level FlightAware ADS-B
Sat 08:35:52 PM 34.9980 -77.7930 207° Southwest 348 400 32,000  Level FlightAware ADS-B
Sat 08:36:32 PM 34.9490 -77.8230 207° Southwest 348 400 32,000  Level FlightAware ADS-B
Sat 08:37:12 PM 34.9000 -77.8530 207° Southwest 348 400 32,000  Level FlightAware ADS-B
Sat 08:37:52 PM 34.8510 -77.8840 207° Southwest 348 400 32,000  Level FlightAware ADS-B
Sat 08:38:32 PM 34.8030 -77.9140 207° Southwest 348 400 32,000  Level FlightAware ADS-B
Sat 08:39:22 PM 34.7420 -77.9520 207° Southwest 348 400 32,000 1,446 Level FlightAware ADS-B
Sat 08:39:55 PM 34.5714 -78.3842 207° Southwest 356 410 34,000 1,290 Climbing Jacksonville Center
Sat 08:40:55 PM 34.4950 -78.4589 219° Southwest 356 410 34,000 -50 Level Jacksonville Center
Sat 08:41:55 PM 34.4225 -78.5356 221° Southwest 362 417 33,900 202 Descending Jacksonville Center
Sat 08:47:22 PM 34.0100 -78.9450 221° Southwest 336 387 35,300 327 Climbing FlightAware ADS-B
Sat 08:48:02 PM 33.9670 -78.9880 220° Southwest 336 387 35,900 467 Climbing FlightAware ADS-B
Sat 08:48:52 PM 33.9010 -79.0540 220° Southwest 355 409 36,000 71 Climbing FlightAware ADS-B
Sat 08:49:27 PM 33.8610 -79.0930 219° Southwest 359 413 36,000  Level FlightAware ADS-B
Sat 08:50:12 PM 33.8000 -79.1540 220° Southwest 356 410 36,000  Level FlightAware ADS-B
Sat 08:51:02 PM 33.7380 -79.2160 220° Southwest 356 410 36,000  Level FlightAware ADS-B
Sat 08:51:57 PM 33.6660 -79.2860 219° Southwest 356 410 36,000  Level FlightAware ADS-B
Sat 08:52:37 PM 33.6200 -79.3310 219° Southwest 356 410 36,000  Level FlightAware ADS-B
Sat 08:53:22 PM 33.5580 -79.3930 220° Southwest 357 411 36,000  Level FlightAware ADS-B
Sat 08:54:02 PM 33.5120 -79.4380 219° Southwest 357 411 36,000  Level FlightAware ADS-B
Sat 08:54:42 PM 33.4570 -79.4910 219° Southwest 358 412 36,000  Level FlightAware ADS-B
Sat 08:55:27 PM 33.4000 -79.5480 220° Southwest 360 414 36,000  Level FlightAware ADS-B
Sat 08:56:07 PM 33.3490 -79.5980 219° Southwest 360 414 36,000  Level FlightAware ADS-B
Sat 08:56:47 PM 33.2960 -79.6490 219° Southwest 362 417 36,000  Level FlightAware ADS-B
Sat 08:57:32 PM 33.2420 -79.7020 219° Southwest 363 418 36,000  Level FlightAware ADS-B
Sat 08:58:12 PM 33.1900 -79.7520 219° Southwest 363 418 36,000  Level FlightAware ADS-B
Sat 08:58:57 PM 33.1300 -79.8100 219° Southwest 364 419 36,000  Level FlightAware ADS-B
Sat 08:59:37 PM 33.0740 -79.8640 219° Southwest 364 419 36,000  Level FlightAware ADS-B
Sat 09:00:17 PM 33.0230 -79.9140 219° Southwest 364 419 36,000  Level FlightAware ADS-B
Sat 09:01:02 PM 32.9690 -79.9660 219° Southwest 363 418 36,000  Level FlightAware ADS-B
Sat 09:01:52 PM 32.9040 -80.0280 219° Southwest 362 417 36,000  Level FlightAware ADS-B
Sat 09:02:42 PM 32.8310 -80.0840 213° Southwest 363 418 36,000  Level FlightAware ADS-B
Sat 09:03:22 PM 32.7720 -80.1280 212° Southwest 363 418 36,000  Level FlightAware ADS-B
Sat 09:04:02 PM 32.7140 -80.1710 212° Southwest 364 419 36,000  Level FlightAware ADS-B
Sat 09:04:47 PM 32.6510 -80.2170 212° Southwest 365 420 36,000  Level FlightAware ADS-B
Sat 09:05:27 PM 32.5920 -80.2610 212° Southwest 364 419 36,000  Level FlightAware ADS-B
Sat 09:06:22 PM 32.5180 -80.3170 213° Southwest 364 419 36,000  Level FlightAware ADS-B
Sat 09:06:57 PM 32.4670 -80.3490 208° Southwest 366 421 36,000  Level FlightAware ADS-B
Sat 09:07:12 PM 32.4380 -80.3580 195° South 378 435 36,000  Level FlightAware ADS-B
Sat 09:08:27 PM 32.3700 -80.3750 192° South 377 434 36,000  Level FlightAware ADS-B
Sat 09:09:12 PM 32.3550 -80.3790 193° South 377 434 36,000  Level FlightAware ADS-B
Sat 09:09:52 PM 32.2970 -80.3930 192° South 377 434 36,000  Level FlightAware ADS-B
Sat 09:10:32 PM 32.2390 -80.4080 192° South 377 434 36,000  Level FlightAware ADS-B
Sat 09:11:12 PM 32.1810 -80.4230 192° South 377 434 36,000  Level FlightAware ADS-B
Sat 09:12:02 PM 32.1090 -80.4410 192° South 377 434 36,000  Level FlightAware ADS-B
Sat 09:12:42 PM 32.0510 -80.4550 192° South 377 434 36,000  Level FlightAware ADS-B
Sat 09:13:22 PM 31.9930 -80.4700 192° South 377 434 36,000  Level FlightAware ADS-B
Sat 09:14:02 PM 31.9350 -80.4840 192° South 377 434 36,000  Level FlightAware ADS-B
Sat 09:14:42 PM 31.8770 -80.4990 192° South 377 434 36,000  Level FlightAware ADS-B
Sat 09:15:22 PM 31.8190 -80.5130 192° South 377 434 36,000  Level FlightAware ADS-B
Sat 09:16:02 PM 31.5560 -80.5750 191° South 358 412 36,000  Level FlightAware ADS-B
Sat 09:16:47 PM 31.4880 -80.5910 191° South 358 412 36,000  Level FlightAware ADS-B
Sat 09:17:37 PM 31.4190 -80.6060 191° South 358 412 36,000 -844 Level FlightAware ADS-B
Sat 09:18:17 PM 31.3400 -80.6280 193° South 35,400 -1,385 Descending FlightAware ADS-B
Sat 09:18:55 PM 31.2614 -80.6469 193° South 371 427 34,200 -909 Descending Jacksonville Center
Sat 09:19:56 PM 31.1553 -80.6736 192° South 376 433 33,900 -100 Descending Jacksonville Center
Sat 09:20:55 PM 31.0514 -80.7006 193° South 382 440 34,000  Climbing Jacksonville Center
Sat 09:21:56 PM 30.9433 -80.7247 191° South 388 447 33,900 -50 Descending Jacksonville Center
Sat 09:22:56 PM 30.8394 -80.7489 191° South 388 447 33,900  Level Jacksonville Center
Sat 09:23:55 PM 30.7333 -80.7756 192° South 388 447 33,900 50 Level Jacksonville Center
Sat 09:24:55 PM 30.6314 -80.8019 193° South 388 447 34,000 50 Climbing Jacksonville Center
Sat 09:25:56 PM 30.5253 -80.8258 191° South 388 447 34,000 -50 Level Jacksonville Center
Sat 09:26:56 PM 30.4233 -80.8497 191° South 388 447 33,900 -1,008 Descending Jacksonville Center
Sat 09:27:55 PM 30.3194 -80.8736 191° South 388 447 32,000 -1,900 Descending Jacksonville Center
Sat 09:28:56 PM 30.2092 -80.9000 192° South 393 452 30,100 -1,736 Descending Jacksonville Center
Sat 09:29:56 PM 30.0989 -80.9264 192° South 393 452 28,500 -1,500 Descending Jacksonville Center
Sat 09:30:56 PM 29.9950 -80.9500 191° South 393 452 27,100 -1,400 Descending Jacksonville Center
Sat 09:31:56 PM 29.8992 -80.9736 192° South 381 438 25,700 -1,400 Descending Jacksonville Center
Sat 09:32:56 PM 29.8078 -80.9969 192° South 358 412 24,300 -900 Descending Jacksonville Center
Sat 09:33:56 PM 29.7183 -81.0178 191° South 341 392 23,900 -1,268 Descending Jacksonville Center
Sat 09:39:57 PM 29.1640 -81.1010 191° South 339 390 15,400 -1,552 Descending FlightAware ADS-B
Sat 09:40:42 PM 29.0890 -81.0960 177° South 352 405 13,400 -2,400 Descending FlightAware ADS-B
Sat 09:41:17 PM 29.0310 -81.0910 176° South 336 387 12,200 -900 Descending FlightAware ADS-B
Sat 09:42:02 PM 28.9680 -81.0850 175° South 336 387 12,200 -253 Level FlightAware ADS-B
Sat 09:42:52 PM 28.8780 -81.0670 170° South 344 396 11,800 -282 Descending FlightAware ADS-B
Sat 09:43:27 PM 28.8210 -81.0570 171° South 344 396 11,800  Level FlightAware ADS-B
Sat 09:43:47 PM 28.7890 -81.0600 185° South 335 386 11,800 -1,000 Level FlightAware ADS-B
Sat 09:44:27 PM 28.7310 -81.0820 198° South 333 383 10,800 -1,341 Descending FlightAware ADS-B
Sat 09:45:12 PM 28.6660 -81.1000 194° South 304 350 9,900 -1,029 Descending FlightAware ADS-B
Sat 09:45:37 PM 28.6310 -81.1110 195° South 286 329 9,600 -1,309 Descending FlightAware ADS-B
Sat 09:46:07 PM 28.5920 -81.1230 195° South 288 331 8,700 -1,636 Descending FlightAware ADS-B
Sat 09:46:32 PM 28.5610 -81.1330 196° South 286 329 8,100 -1,636 Descending FlightAware ADS-B
Sat 09:47:02 PM 28.5220 -81.1460 196° South 283 326 7,200 -1,527 Descending FlightAware ADS-B
Sat 09:47:27 PM 28.4900 -81.1560 195° South 266 306 6,700 -1,309 Descending FlightAware ADS-B
Sat 09:47:57 PM 28.4550 -81.1670 195° South 272 313 6,000 -1,400 Descending FlightAware ADS-B
Sat 09:48:27 PM 28.4200 -81.1790 197° South 268 308 5,300 -1,309 Descending FlightAware ADS-B
Sat 09:48:52 PM 28.3870 -81.1870 192° South 262 302 4,800 -764 Descending FlightAware ADS-B
Sat 09:49:22 PM 28.3490 -81.1870 180° South 256 295 4,600 -436 Descending FlightAware ADS-B
Sat 09:49:47 PM 28.3200 -81.1870 180° South 245 282 4,400 -764 Descending FlightAware ADS-B
Sat 09:50:17 PM 28.2910 -81.1990 200° South 224 258 3,900 -933 Descending FlightAware ADS-B
Sat 09:50:32 PM 28.2850 -81.2150 247° West 209 241 3,700 -750 Descending FlightAware ADS-B
Sat 09:50:57 PM 28.2820 -81.2410 263° West 180 207 3,400 -1,200 Descending FlightAware ADS-B
Sat 09:51:27 PM 28.2800 -81.2690 265° West 180 207 2,600 -1,745 Descending FlightAware ADS-B
Sat 09:51:52 PM 28.2790 -81.2930 267° West 188 216 1,800 -1,309 Descending FlightAware ADS-B
Sat 09:52:22 PM 28.2920 -81.3170 302° West 176 203 1,400 -533 Descending FlightAware ADS-B
Sat 09:52:37 PM 28.3040 -81.3210 344° North 178 205 1,400  Level FlightAware ADS-B
Sat 09:53:07 PM 28.3290 -81.3210 360° North 176 203 1,400 -109 Level FlightAware ADS-B
Sat 09:53:32 PM 28.3480 -81.3210 360° North 162 186 1,300 -655 Descending FlightAware ADS-B
Sat 09:54:02 PM 28.3700 -81.3210 360° North 132 152 800 -800 Descending FlightAware ADS-B
Sat 09:54:32 PM 28.3890 -81.3220 357° North 127 146 500 -655 Descending FlightAware ADS-B
Sat 09:54:57 PM 28.4030 -81.3220 360° North 127 146 200 -720 Descending FlightAware ADS-B
Sat 09:55:22 PM 28.4180 -81.3220 360° North 127 146 -480 Descending FlightAware ADS-B

Login

Don't have an account? Register now (free) for customized features, flight alerts, and more!